createdAt,value
2017-06-13T00:02:02.076Z,84.60
2017-06-13T00:04:28.442Z,84.70
2017-06-13T00:06:54.745Z,84.70
2017-06-13T00:09:21.825Z,83.70
2017-06-13T00:11:48.175Z,83.70
2017-06-13T00:14:14.506Z,83.40
2017-06-13T00:16:40.886Z,84.00
2017-06-13T00:19:07.950Z,85.60
2017-06-13T00:21:34.297Z,85.50
2017-06-13T00:24:00.622Z,85.70
2017-06-13T00:26:26.938Z,86.30
2017-06-13T00:28:53.284Z,86.50
2017-06-13T00:31:19.581Z,86.10
2017-06-13T00:33:46.668Z,83.70
2017-06-13T00:36:12.964Z,83.60
2017-06-13T00:38:40.038Z,84.40
2017-06-13T00:41:06.309Z,84.40
2017-06-13T00:43:32.618Z,84.10
2017-06-13T00:45:58.958Z,84.60
2017-06-13T00:48:25.265Z,84.50
2017-06-13T00:50:51.579Z,84.30
2017-06-13T00:53:17.901Z,85.00
2017-06-13T00:55:44.994Z,85.40
2017-06-13T00:58:11.337Z,85.40
2017-06-13T01:00:37.657Z,85.20
2017-06-13T01:03:04.025Z,85.30
2017-06-13T01:05:30.331Z,85.60
2017-06-13T01:07:56.651Z,85.70
2017-06-13T01:10:22.990Z,86.10
2017-06-13T01:12:49.341Z,86.10
2017-06-13T01:15:15.677Z,85.50
2017-06-13T01:17:41.974Z,84.60
2017-06-13T01:20:08.328Z,84.60
2017-06-13T01:22:34.642Z,85.00
2017-06-13T01:25:00.969Z,84.00
2017-06-13T01:27:27.295Z,83.80
2017-06-13T01:29:53.632Z,84.40
2017-06-13T01:32:19.966Z,85.10
2017-06-13T01:34:46.295Z,85.20
2017-06-13T01:37:12.642Z,84.80
2017-06-13T01:39:38.969Z,84.70
2017-06-13T01:42:05.305Z,84.40
2017-06-13T01:44:31.684Z,83.80
2017-06-13T01:46:58.020Z,84.00
2017-06-13T01:49:24.381Z,84.10
2017-06-13T01:51:50.715Z,84.10
2017-06-13T01:54:17.066Z,84.60
2017-06-13T01:56:43.421Z,84.60
2017-06-13T01:59:09.743Z,84.50
2017-06-13T02:01:36.113Z,84.60
2017-06-13T02:04:02.451Z,84.90
2017-06-13T02:06:28.758Z,84.70
2017-06-13T02:08:55.090Z,84.60
2017-06-13T02:11:21.408Z,85.80
2017-06-13T02:13:47.731Z,86.60
2017-06-13T02:16:14.791Z,86.70
2017-06-13T02:18:41.108Z,86.70
2017-06-13T02:21:07.433Z,86.40
2017-06-13T02:23:33.734Z,86.20
2017-06-13T02:26:00.044Z,86.00
2017-06-13T02:28:26.375Z,85.40
2017-06-13T02:30:53.319Z,85.00
2017-06-13T02:33:19.654Z,84.90
2017-06-13T02:35:45.991Z,85.60
2017-06-13T02:38:12.356Z,85.60
2017-06-13T02:40:39.414Z,86.90
2017-06-13T02:43:05.733Z,86.70
2017-06-13T02:45:32.093Z,86.90
2017-06-13T02:47:58.393Z,87.20
2017-06-13T02:50:25.452Z,86.90
2017-06-13T02:52:51.772Z,86.90
2017-06-13T02:55:18.124Z,86.60
2017-06-13T02:57:44.412Z,86.80
2017-06-13T03:00:10.754Z,86.10
2017-06-13T03:02:37.829Z,86.00
2017-06-13T03:05:04.162Z,85.80
2017-06-13T03:07:30.522Z,85.40
2017-06-13T03:09:56.851Z,85.10
2017-06-13T03:12:23.221Z,85.10
2017-06-13T03:14:49.516Z,84.60
2017-06-13T03:17:15.848Z,84.40
2017-06-13T03:19:42.173Z,83.90
2017-06-13T03:22:08.497Z,83.50
2017-06-13T03:24:34.857Z,83.90
2017-06-13T03:27:01.171Z,83.30
2017-06-13T03:29:27.496Z,83.20
2017-06-13T03:31:53.827Z,83.30
2017-06-13T03:34:20.134Z,83.10
2017-06-13T03:36:46.462Z,82.10
2017-06-13T03:39:12.795Z,81.60
2017-06-13T03:41:39.146Z,81.40
2017-06-13T03:44:05.441Z,80.10
2017-06-13T03:46:31.804Z,79.20
2017-06-13T03:48:58.134Z,78.40
2017-06-13T03:51:24.447Z,78.20
2017-06-13T03:53:50.785Z,77.70
2017-06-13T03:56:17.117Z,76.90
2017-06-13T03:58:43.469Z,75.70
2017-06-13T04:01:09.789Z,74.50
2017-06-13T04:03:36.125Z,74.20
2017-06-13T04:06:02.483Z,73.90
2017-06-13T04:08:28.825Z,73.50
2017-06-13T04:10:55.895Z,72.80
2017-06-13T04:13:22.205Z,72.80
2017-06-13T04:15:48.553Z,72.80
2017-06-13T04:18:14.921Z,72.70
2017-06-13T04:20:41.209Z,72.60
2017-06-13T04:23:07.530Z,72.40
2017-06-13T04:25:33.860Z,72.70
2017-06-13T04:28:00.910Z,72.50
2017-06-13T04:30:27.969Z,71.90
2017-06-13T04:32:54.275Z,72.50
2017-06-13T04:35:20.615Z,72.00
2017-06-13T04:37:46.916Z,71.10
2017-06-13T04:40:13.275Z,73.30
2017-06-13T04:42:39.625Z,73.10
2017-06-13T04:45:05.929Z,72.70
2017-06-13T04:47:32.225Z,71.80
2017-06-13T04:49:58.497Z,71.50
2017-06-13T04:52:25.594Z,71.60
2017-06-13T04:54:51.902Z,71.60
2017-06-13T04:57:18.229Z,71.50
2017-06-13T04:59:44.537Z,70.20
2017-06-13T05:02:11.799Z,69.50
2017-06-13T05:04:38.127Z,69.40
2017-06-13T05:07:04.418Z,70.80
2017-06-13T05:09:30.768Z,70.40
2017-06-13T05:11:57.055Z,72.00
2017-06-13T05:14:23.357Z,70.50
2017-06-13T05:16:49.676Z,69.70
2017-06-13T05:19:16.722Z,68.70
2017-06-13T05:21:43.777Z,68.20
2017-06-13T05:24:10.091Z,68.10
2017-06-13T05:26:37.161Z,67.60
2017-06-13T05:29:03.454Z,67.60
2017-06-13T05:31:29.781Z,68.40
2017-06-13T05:33:56.211Z,68.60
2017-06-13T05:36:22.511Z,68.20
2017-06-13T05:38:48.849Z,68.30
2017-06-13T05:41:15.194Z,68.80
2017-06-13T05:43:41.530Z,68.60
2017-06-13T05:46:07.835Z,68.20
2017-06-13T05:48:34.150Z,68.00
2017-06-13T05:51:00.490Z,68.00
2017-06-13T05:53:26.826Z,68.00
2017-06-13T05:55:53.156Z,67.60
2017-06-13T05:58:19.446Z,68.20
2017-06-13T06:00:45.794Z,69.20
2017-06-13T06:03:12.118Z,68.60
2017-06-13T06:05:38.422Z,67.50
2017-06-13T06:08:05.494Z,69.00
2017-06-13T06:10:31.811Z,68.90
2017-06-13T06:12:58.118Z,69.60
2017-06-13T06:15:24.417Z,69.00
2017-06-13T06:17:50.783Z,68.00
2017-06-13T06:20:17.091Z,68.70
2017-06-13T06:22:43.390Z,68.90
2017-06-13T06:25:09.722Z,67.30
2017-06-13T06:27:36.037Z,67.20
2017-06-13T06:30:02.373Z,67.40
2017-06-13T06:32:28.692Z,66.20
2017-06-13T06:34:55.025Z,65.60
2017-06-13T06:37:21.344Z,65.40
2017-06-13T06:39:47.661Z,65.40
2017-06-13T06:42:14.726Z,66.90
2017-06-13T06:44:41.047Z,66.20
2017-06-13T06:47:08.114Z,66.00
2017-06-13T06:49:34.437Z,65.20
2017-06-13T06:52:00.792Z,65.70
2017-06-13T06:54:27.069Z,65.60
2017-06-13T06:56:53.369Z,65.30
2017-06-13T06:59:19.683Z,65.70
2017-06-13T07:01:45.984Z,65.80
2017-06-13T07:04:12.317Z,65.40
2017-06-13T07:06:38.609Z,65.90
2017-06-13T07:09:04.954Z,66.50
2017-06-13T07:11:31.254Z,66.40
2017-06-13T07:13:57.568Z,64.50
2017-06-13T07:16:23.894Z,62.40
2017-06-13T07:18:50.184Z,62.40
2017-06-13T07:21:17.233Z,61.90
2017-06-13T07:23:43.582Z,61.20
2017-06-13T07:26:09.909Z,61.60
2017-06-13T07:28:36.223Z,63.00
2017-06-13T07:31:03.324Z,60.60
2017-06-13T07:33:29.646Z,60.60
2017-06-13T07:35:55.954Z,61.80
2017-06-13T07:38:22.284Z,61.30
2017-06-13T07:40:48.601Z,60.10
2017-06-13T07:43:14.911Z,59.90
2017-06-13T07:45:41.232Z,60.30
2017-06-13T07:48:07.551Z,61.50
2017-06-13T07:50:33.889Z,61.40
2017-06-13T07:53:00.196Z,61.30
2017-06-13T07:55:26.575Z,59.40
2017-06-13T07:57:52.905Z,59.00
2017-06-13T08:00:20.769Z,59.50
2017-06-13T08:02:47.830Z,59.00
2017-06-13T08:05:14.109Z,58.90
2017-06-13T08:07:40.429Z,60.30
2017-06-13T08:10:06.734Z,59.70
2017-06-13T08:12:33.066Z,58.70
2017-06-13T08:14:59.379Z,57.90
2017-06-13T08:17:25.686Z,57.40
2017-06-13T08:19:53.645Z,59.10
2017-06-13T08:22:19.975Z,59.50
2017-06-13T08:24:46.332Z,59.60
2017-06-13T08:27:13.417Z,59.00
2017-06-13T08:29:39.761Z,59.00
2017-06-13T08:32:06.085Z,60.20
2017-06-13T08:34:32.385Z,59.90
2017-06-13T08:36:58.688Z,59.70
2017-06-13T08:39:25.742Z,58.00
2017-06-13T08:41:52.851Z,58.30
2017-06-13T08:44:19.148Z,58.20
2017-06-13T08:46:45.460Z,60.00
2017-06-13T08:49:11.798Z,59.40
2017-06-13T08:51:38.109Z,58.10
2017-06-13T08:54:05.195Z,58.20
2017-06-13T08:56:31.499Z,58.20
2017-06-13T08:58:57.818Z,57.90
2017-06-13T09:01:24.876Z,55.90
2017-06-13T09:03:51.226Z,55.90
2017-06-13T09:06:17.538Z,56.10
2017-06-13T09:08:44.571Z,57.20
2017-06-13T09:11:11.304Z,57.20
2017-06-13T09:13:37.624Z,56.40
2017-06-13T09:16:03.961Z,57.10
2017-06-13T09:18:30.296Z,55.20
2017-06-13T09:20:57.349Z,55.70
2017-06-13T09:23:24.423Z,55.40
2017-06-13T09:25:50.755Z,55.40
2017-06-13T09:28:17.116Z,56.20
2017-06-13T09:30:43.419Z,55.50
2017-06-13T09:33:09.712Z,55.10
2017-06-13T09:35:36.036Z,54.10
2017-06-13T09:38:02.344Z,54.10
2017-06-13T09:40:28.702Z,54.00
2017-06-13T09:42:55.760Z,54.80
2017-06-13T09:45:22.089Z,54.50
2017-06-13T09:47:48.377Z,54.20
2017-06-13T09:50:14.677Z,55.10
2017-06-13T09:52:40.992Z,54.50
2017-06-13T09:55:07.327Z,53.50
2017-06-13T09:57:33.667Z,52.90
2017-06-13T09:59:59.988Z,52.40
2017-06-13T10:02:26.333Z,50.10
2017-06-13T10:04:52.628Z,52.10
2017-06-13T10:07:19.687Z,51.20
2017-06-13T10:09:46.000Z,51.10
2017-06-13T10:12:13.051Z,50.70
2017-06-13T10:14:40.103Z,48.50
2017-06-13T10:17:06.401Z,48.40
2017-06-13T10:19:32.751Z,48.30
2017-06-13T10:21:59.049Z,48.00
2017-06-13T10:24:25.351Z,48.60
2017-06-13T10:26:51.669Z,47.10
2017-06-13T10:29:17.979Z,45.60
2017-06-13T10:31:45.072Z,45.00
2017-06-13T10:34:11.394Z,45.00
2017-06-13T10:36:37.712Z,45.70
2017-06-13T10:39:04.024Z,45.80
2017-06-13T10:41:30.361Z,46.20
2017-06-13T10:43:56.686Z,45.80
2017-06-13T10:46:23.034Z,45.40
2017-06-13T10:48:49.396Z,45.30
2017-06-13T10:51:15.705Z,44.90
2017-06-13T10:53:42.009Z,44.70
2017-06-13T10:56:09.061Z,44.70
2017-06-13T10:58:35.414Z,44.60
2017-06-13T11:01:01.749Z,43.70
2017-06-13T11:03:28.069Z,43.90
2017-06-13T11:05:54.437Z,43.80
2017-06-13T11:08:20.773Z,43.10
2017-06-13T11:10:47.092Z,43.00
2017-06-13T11:13:13.419Z,42.10
2017-06-13T11:15:39.725Z,42.60
2017-06-13T11:18:06.065Z,41.70
2017-06-13T11:20:32.402Z,42.30
2017-06-13T11:22:58.770Z,42.70
2017-06-13T11:25:25.085Z,41.70
2017-06-13T11:27:51.379Z,41.80
2017-06-13T11:30:17.703Z,40.50
2017-06-13T11:32:44.039Z,41.40
2017-06-13T11:35:10.373Z,41.20
2017-06-13T11:37:36.738Z,40.60
2017-06-13T11:40:03.110Z,40.70
2017-06-13T11:42:29.425Z,40.20
2017-06-13T11:44:56.473Z,39.10
2017-06-13T11:47:23.532Z,38.90
2017-06-13T11:49:49.849Z,38.90
2017-06-13T11:52:17.000Z,39.10
2017-06-13T11:54:43.313Z,39.10
2017-06-13T11:57:09.702Z,40.10
2017-06-13T11:59:36.028Z,40.20
2017-06-13T12:02:02.357Z,39.70
2017-06-13T12:04:28.686Z,39.60
2017-06-13T12:06:54.989Z,39.20
2017-06-13T12:09:22.081Z,38.90
2017-06-13T12:11:48.395Z,38.90
2017-06-13T12:14:14.719Z,38.50
2017-06-13T12:16:41.046Z,38.10
2017-06-13T12:19:07.366Z,38.00
2017-06-13T12:21:33.686Z,38.30
2017-06-13T12:24:00.733Z,38.80
2017-06-13T12:26:27.772Z,38.60
2017-06-13T12:28:54.124Z,38.60
2017-06-13T12:31:20.462Z,37.30
2017-06-13T12:33:46.790Z,37.60
2017-06-13T12:36:13.140Z,37.50
2017-06-13T12:38:39.481Z,37.90
2017-06-13T12:41:05.798Z,38.00
2017-06-13T12:43:32.119Z,37.80
2017-06-13T12:45:58.438Z,37.50
2017-06-13T12:48:24.763Z,37.20
2017-06-13T12:50:51.139Z,37.00
2017-06-13T12:53:17.493Z,37.10
2017-06-13T12:55:43.799Z,37.00
2017-06-13T12:58:10.119Z,37.10
2017-06-13T13:00:36.455Z,36.80
2017-06-13T13:03:02.761Z,36.30
2017-06-13T13:05:29.079Z,35.50
2017-06-13T13:07:55.425Z,36.00
2017-06-13T13:10:21.758Z,36.70
2017-06-13T13:12:48.077Z,36.30
2017-06-13T13:15:14.425Z,36.70
2017-06-13T13:17:40.713Z,36.70
2017-06-13T13:20:07.030Z,36.30
2017-06-13T13:22:34.286Z,36.40
2017-06-13T13:25:00.605Z,35.70
2017-06-13T13:27:26.945Z,35.60
2017-06-13T13:29:53.273Z,34.80
2017-06-13T13:32:19.905Z,35.00
2017-06-13T13:34:46.226Z,35.10
2017-06-13T13:37:12.524Z,34.10
2017-06-13T13:39:45.883Z,34.10
2017-06-13T13:42:12.925Z,33.60
2017-06-13T13:44:39.964Z,34.60
2017-06-13T13:47:06.309Z,35.20
2017-06-13T13:49:32.624Z,33.40
2017-06-13T13:51:58.971Z,32.80
2017-06-13T13:54:25.285Z,32.90
2017-06-13T13:56:51.615Z,33.40
2017-06-13T13:59:17.959Z,33.40
2017-06-13T14:01:44.262Z,33.00
2017-06-13T14:04:10.609Z,33.30
2017-06-13T14:06:37.688Z,32.40
2017-06-13T14:09:04.109Z,31.70
2017-06-13T14:11:30.446Z,32.20
2017-06-13T14:13:57.125Z,32.70
2017-06-13T14:16:24.073Z,32.00
2017-06-13T14:18:50.420Z,31.70
2017-06-13T14:21:16.716Z,32.50
2017-06-13T14:23:43.036Z,31.60
2017-06-13T14:26:09.375Z,31.60
2017-06-13T14:28:35.677Z,31.70
2017-06-13T14:31:02.370Z,31.30
2017-06-13T14:33:28.707Z,32.00
2017-06-13T14:35:55.045Z,30.60
2017-06-13T14:38:21.381Z,30.00
2017-06-13T14:40:47.726Z,29.70
2017-06-13T14:43:14.070Z,28.80
2017-06-13T14:45:40.434Z,29.60
2017-06-13T14:48:07.116Z,30.50
2017-06-13T14:50:33.417Z,30.50
2017-06-13T14:52:59.860Z,29.10
2017-06-13T14:55:26.186Z,29.70
2017-06-13T14:57:52.539Z,29.90
2017-06-13T15:00:18.971Z,29.40
2017-06-13T15:02:45.324Z,29.20
2017-06-13T15:05:11.675Z,29.10
2017-06-13T15:07:38.005Z,28.50
2017-06-13T15:10:04.310Z,28.80
2017-06-13T15:12:30.675Z,29.30
2017-06-13T15:14:56.990Z,29.00
2017-06-13T15:17:23.307Z,29.10
2017-06-13T15:19:49.656Z,27.80
2017-06-13T15:22:16.975Z,27.20
2017-06-13T15:24:43.296Z,27.20
2017-06-13T15:27:10.375Z,28.50
2017-06-13T15:29:36.724Z,28.20
2017-06-13T15:32:03.078Z,28.50
2017-06-13T15:34:29.431Z,28.70
2017-06-13T15:36:55.772Z,28.20
2017-06-13T15:39:22.094Z,28.10
2017-06-13T15:41:48.427Z,27.90
2017-06-13T15:44:14.770Z,28.20
2017-06-13T15:46:42.917Z,29.00
2017-06-13T15:49:09.267Z,28.90
2017-06-13T15:51:36.328Z,29.30
2017-06-13T15:54:02.650Z,28.70
2017-06-13T15:56:29.729Z,28.80
2017-06-13T15:58:56.084Z,28.70
2017-06-13T16:01:22.387Z,29.00
2017-06-13T16:03:48.778Z,29.10
2017-06-13T16:06:15.158Z,28.20
2017-06-13T16:08:41.467Z,27.80
2017-06-13T16:11:07.804Z,28.00
2017-06-13T16:13:34.124Z,28.60
2017-06-13T16:16:00.492Z,28.70
2017-06-13T16:18:26.816Z,28.20
2017-06-13T16:20:53.144Z,28.90
2017-06-13T16:23:19.461Z,29.20
2017-06-13T16:25:46.577Z,29.40
2017-06-13T16:28:12.957Z,29.70
2017-06-13T16:30:40.455Z,30.10
2017-06-13T16:33:07.569Z,29.40
2017-06-13T16:35:33.900Z,29.40
2017-06-13T16:38:00.224Z,30.00
2017-06-13T16:40:26.548Z,29.90
2017-06-13T16:42:52.892Z,31.10
2017-06-13T16:45:19.503Z,30.30
2017-06-13T16:47:45.818Z,31.40
2017-06-13T16:50:12.160Z,32.70
2017-06-13T16:52:38.523Z,33.60
2017-06-13T16:55:04.864Z,32.90
2017-06-13T16:57:31.213Z,32.40
2017-06-13T16:59:57.551Z,33.00
2017-06-13T17:02:23.918Z,33.70
2017-06-13T17:04:50.429Z,34.50
2017-06-13T17:07:17.512Z,35.60
2017-06-13T17:09:43.843Z,35.60
2017-06-13T17:12:10.184Z,36.60
2017-06-13T17:14:36.524Z,37.50
2017-06-13T17:17:02.873Z,37.30
2017-06-13T17:19:29.176Z,37.40
2017-06-13T17:21:55.517Z,38.70
2017-06-13T17:24:21.846Z,38.80
2017-06-13T17:26:48.164Z,39.70
2017-06-13T17:29:14.475Z,39.40
2017-06-13T17:31:40.822Z,39.70
2017-06-13T17:34:07.132Z,40.00
2017-06-13T17:36:33.468Z,40.70
2017-06-13T17:38:59.820Z,41.10
2017-06-13T17:41:26.134Z,41.40
2017-06-13T17:43:52.461Z,42.10
2017-06-13T17:46:18.761Z,42.90
2017-06-13T17:48:45.141Z,43.10
2017-06-13T17:51:11.470Z,43.20
2017-06-13T17:53:37.791Z,42.90
2017-06-13T17:56:04.175Z,43.40
2017-06-13T17:58:31.265Z,43.00
2017-06-13T18:00:57.645Z,43.00
2017-06-13T18:03:24.015Z,42.90
2017-06-13T18:05:50.406Z,42.70
2017-06-13T18:08:16.733Z,43.10
2017-06-13T18:10:43.039Z,43.20
2017-06-13T18:13:09.408Z,43.60
2017-06-13T18:15:35.769Z,44.20
2017-06-13T18:18:02.101Z,44.10
2017-06-13T18:20:28.427Z,44.10
2017-06-13T18:22:54.791Z,45.10
2017-06-13T18:25:21.135Z,45.50
2017-06-13T18:27:47.456Z,45.30
2017-06-13T18:30:13.856Z,45.70
2017-06-13T18:32:40.174Z,46.20
2017-06-13T18:35:07.257Z,46.30
2017-06-13T18:37:33.615Z,46.30
2017-06-13T18:39:59.949Z,46.60
2017-06-13T18:42:26.475Z,46.90
2017-06-13T18:44:52.828Z,47.20
2017-06-13T18:47:19.120Z,47.60
2017-06-13T18:49:45.474Z,48.90
2017-06-13T18:52:11.808Z,48.90
2017-06-13T18:54:38.140Z,49.60
2017-06-13T18:57:04.478Z,49.70
2017-06-13T18:59:30.757Z,49.80
2017-06-13T19:01:57.115Z,51.00
2017-06-13T19:04:23.458Z,51.80
2017-06-13T19:06:49.788Z,50.80
2017-06-13T19:09:16.125Z,52.40
2017-06-13T19:11:42.525Z,53.20
2017-06-13T19:14:08.875Z,54.30
2017-06-13T19:16:35.235Z,54.10
2017-06-13T19:19:02.351Z,52.60
2017-06-13T19:21:28.733Z,52.60
2017-06-13T19:23:55.085Z,52.00
2017-06-13T19:26:21.395Z,52.10
2017-06-13T19:28:47.792Z,52.40
2017-06-13T19:31:14.138Z,53.00
2017-06-13T19:33:40.499Z,53.60
2017-06-13T19:36:06.856Z,54.00
2017-06-13T19:38:33.223Z,54.60
2017-06-13T19:40:59.626Z,54.30
2017-06-13T19:43:25.975Z,54.70
2017-06-13T19:45:52.617Z,55.30
2017-06-13T19:48:18.940Z,55.40
2017-06-13T19:50:45.280Z,54.90
2017-06-13T19:53:11.622Z,54.60
2017-06-13T19:55:38.722Z,57.00
2017-06-13T19:58:05.069Z,57.00
2017-06-13T20:00:31.410Z,58.50
2017-06-13T20:02:57.963Z,59.50
2017-06-13T20:05:24.343Z,59.80
2017-06-13T20:07:50.694Z,61.20
2017-06-13T20:10:17.065Z,61.00
2017-06-13T20:12:44.171Z,60.50
2017-06-13T20:15:10.535Z,60.40
2017-06-13T20:17:36.916Z,60.90
2017-06-13T20:20:03.362Z,61.50
2017-06-13T20:22:29.715Z,62.20
2017-06-13T20:24:56.645Z,63.10
2017-06-13T20:27:23.000Z,63.30
2017-06-13T20:29:49.359Z,64.20
2017-06-13T20:32:15.722Z,64.90
2017-06-13T20:34:42.093Z,65.60
2017-06-13T20:37:08.440Z,66.20
2017-06-13T20:39:35.571Z,67.60
2017-06-13T20:42:01.940Z,67.60
2017-06-13T20:44:28.296Z,68.10
2017-06-13T20:46:54.613Z,68.40
2017-06-13T20:49:20.954Z,68.10
2017-06-13T20:51:47.298Z,67.70
2017-06-13T20:54:13.651Z,67.70
2017-06-13T20:56:39.972Z,67.80
2017-06-13T20:59:06.323Z,67.60
2017-06-13T21:01:32.675Z,68.10
2017-06-13T21:03:59.010Z,68.70
2017-06-13T21:06:25.421Z,70.80
2017-06-13T21:08:51.721Z,71.40
2017-06-13T21:11:18.044Z,73.20
2017-06-13T21:13:44.381Z,73.50
2017-06-13T21:16:10.716Z,73.50
2017-06-13T21:18:37.086Z,73.30
2017-06-13T21:21:04.146Z,74.60
2017-06-13T21:23:30.504Z,74.60
2017-06-13T21:25:56.859Z,75.90
2017-06-13T21:28:23.219Z,76.40
2017-06-13T21:30:50.303Z,76.70
2017-06-13T21:33:16.633Z,76.00
2017-06-13T21:35:43.018Z,75.30
2017-06-13T21:38:10.119Z,75.50
2017-06-13T21:40:36.476Z,75.40
2017-06-13T21:43:02.829Z,76.00
2017-06-13T21:45:29.165Z,76.50
2017-06-13T21:47:55.708Z,77.30
2017-06-13T21:50:22.901Z,78.00
2017-06-13T21:52:49.228Z,77.70
2017-06-13T21:55:15.586Z,77.70
2017-06-13T21:57:42.980Z,78.20
2017-06-13T22:00:09.342Z,80.00
2017-06-13T22:02:35.659Z,81.10
2017-06-13T22:05:02.173Z,81.70
2017-06-13T22:07:29.304Z,81.50
2017-06-13T22:09:57.282Z,80.70
2017-06-13T22:12:24.441Z,80.10
2017-06-13T22:14:50.842Z,80.10
2017-06-13T22:17:17.217Z,80.20
2017-06-13T22:19:43.595Z,80.40
2017-06-13T22:22:09.980Z,80.50
2017-06-13T22:24:36.353Z,80.30
2017-06-13T22:27:02.741Z,80.00
2017-06-13T22:29:29.158Z,79.80
2017-06-13T22:31:55.510Z,79.40
2017-06-13T22:34:21.880Z,79.50
2017-06-13T22:36:48.211Z,79.80
2017-06-13T22:39:14.544Z,79.80
2017-06-13T22:41:40.875Z,79.80
2017-06-13T22:44:07.360Z,79.50
2017-06-13T22:46:33.714Z,79.50
2017-06-13T22:49:00.095Z,79.50
2017-06-13T22:51:26.501Z,79.70
2017-06-13T22:53:52.837Z,80.40
2017-06-13T22:56:19.198Z,81.00
2017-06-13T22:58:46.320Z,81.90
2017-06-13T23:01:12.690Z,81.80
2017-06-13T23:03:39.112Z,82.30
2017-06-13T23:06:05.496Z,82.70
2017-06-13T23:08:31.892Z,83.00
2017-06-13T23:10:58.300Z,83.10
2017-06-13T23:13:24.712Z,83.40
2017-06-13T23:15:51.250Z,83.60
2017-06-13T23:18:17.621Z,83.80
2017-06-13T23:20:43.949Z,83.90
2017-06-13T23:23:12.094Z,84.10
2017-06-13T23:25:38.640Z,84.20
2017-06-13T23:28:04.985Z,84.20
2017-06-13T23:30:31.303Z,84.20
2017-06-13T23:32:57.634Z,84.10
2017-06-13T23:35:24.008Z,84.50
2017-06-13T23:37:50.394Z,84.70
2017-06-13T23:40:17.463Z,85.20
2017-06-13T23:42:44.508Z,84.50
2017-06-13T23:45:11.616Z,84.50
2017-06-13T23:47:37.946Z,84.40
2017-06-13T23:50:04.276Z,84.60
2017-06-13T23:52:30.591Z,85.00
2017-06-13T23:54:56.962Z,85.40
2017-06-13T23:57:23.354Z,85.40
2017-06-13T23:59:49.694Z,85.40
